createdAt,value
2022-12-04T00:00:47.358Z,72.88
2022-12-04T00:03:54.914Z,73.72
2022-12-04T00:06:59.101Z,73.68
2022-12-04T00:10:03.937Z,73.54
2022-12-04T00:13:06.800Z,72.90
2022-12-04T00:16:15.693Z,72.89
2022-12-04T00:19:19.777Z,73.13
2022-12-04T00:22:22.894Z,72.77
2022-12-04T00:25:26.870Z,73.37
2022-12-04T00:28:29.760Z,73.53
2022-12-04T00:31:35.546Z,72.95
2022-12-04T00:34:38.282Z,73.05
2022-12-04T00:37:42.263Z,73.23
2022-12-04T00:40:51.787Z,72.97
2022-12-04T00:43:55.800Z,73.42
2022-12-04T00:47:01.595Z,73.93
2022-12-04T00:50:04.863Z,73.51
2022-12-04T00:53:08.829Z,73.53
2022-12-04T00:56:14.094Z,73.75
2022-12-04T00:59:18.077Z,73.58
2022-12-04T01:02:23.442Z,73.82
2022-12-04T01:05:26.154Z,72.84
2022-12-04T01:08:30.244Z,73.26
2022-12-04T01:11:33.590Z,73.21
2022-12-04T01:14:37.635Z,72.52
2022-12-04T01:17:41.739Z,72.40
2022-12-04T01:20:50.235Z,73.09
2022-12-04T01:23:54.494Z,73.25
2022-12-04T01:26:57.203Z,73.29
2022-12-04T01:30:01.336Z,73.89
2022-12-04T01:33:05.441Z,74.93
2022-12-04T01:36:12.240Z,73.60
2022-12-04T01:39:16.439Z,74.21
2022-12-04T01:42:20.467Z,74.50
2022-12-04T01:45:44.617Z,73.30
2022-12-04T01:48:53.967Z,74.96
2022-12-04T01:52:01.123Z,74.97
2022-12-04T01:55:03.896Z,74.89
2022-12-04T01:58:09.003Z,75.07
2022-12-04T02:01:11.948Z,75.02
2022-12-04T02:04:17.392Z,75.36
2022-12-04T02:07:20.343Z,75.73
2022-12-04T02:10:32.172Z,75.38
2022-12-04T02:13:44.451Z,75.10
2022-12-04T02:16:55.291Z,75.40
2022-12-04T02:24:03.488Z,75.80
2022-12-04T02:27:15.332Z,74.60
2022-12-04T02:30:19.734Z,75.58
2022-12-04T02:33:28.727Z,75.41
2022-12-04T02:36:37.508Z,76.24
2022-12-04T02:39:43.160Z,75.59
2022-12-04T02:42:51.009Z,76.54
2022-12-04T02:46:00.748Z,76.50
2022-12-04T02:52:33.065Z,75.75
2022-12-04T02:55:41.023Z,76.26
2022-12-04T02:58:49.357Z,77.29
2022-12-04T03:05:27.046Z,76.62
2022-12-04T03:08:36.339Z,75.77
2022-12-04T03:11:45.800Z,76.70
2022-12-04T03:14:53.695Z,75.84
2022-12-04T03:18:05.705Z,75.77
2022-12-04T03:21:14.069Z,76.22
2022-12-04T03:24:25.721Z,76.00
2022-12-04T03:27:36.622Z,76.30
2022-12-04T03:30:44.677Z,76.76
2022-12-04T03:33:50.837Z,77.16
2022-12-04T03:36:57.099Z,77.11
2022-12-04T03:40:06.305Z,76.98
2022-12-04T03:43:15.732Z,76.34
2022-12-04T03:46:28.173Z,76.43
2022-12-04T03:49:40.344Z,76.03
2022-12-04T03:52:53.585Z,76.06
2022-12-04T03:56:04.301Z,75.25
2022-12-04T03:59:13.711Z,76.09
2022-12-04T04:02:20.955Z,76.83
2022-12-04T04:05:29.668Z,76.43
2022-12-04T04:08:37.396Z,76.24
2022-12-04T04:11:46.611Z,75.69
2022-12-04T04:15:13.451Z,75.56
2022-12-04T04:18:33.711Z,76.17
2022-12-04T04:21:58.494Z,76.40
2022-12-04T04:25:05.202Z,76.45
2022-12-04T04:28:30.582Z,76.53
2022-12-04T04:31:40.477Z,76.47
2022-12-04T04:34:51.260Z,76.30
2022-12-04T04:38:03.950Z,76.47
2022-12-04T04:41:13.408Z,76.74
2022-12-04T04:44:23.497Z,76.86
2022-12-04T04:47:32.016Z,76.78
2022-12-04T04:50:37.505Z,77.51
2022-12-04T04:53:46.467Z,76.63
2022-12-04T04:56:50.455Z,75.89
2022-12-04T04:59:53.633Z,74.33
2022-12-04T05:02:56.690Z,76.13
2022-12-04T05:05:59.486Z,76.73
2022-12-04T05:09:04.887Z,75.52
2022-12-04T05:12:07.726Z,75.71
2022-12-04T05:15:12.760Z,76.13
2022-12-04T05:18:16.693Z,76.54
2022-12-04T05:21:19.700Z,76.34
2022-12-04T05:24:23.774Z,76.62
2022-12-04T05:27:28.735Z,77.05
2022-12-04T05:30:31.419Z,76.37
2022-12-04T05:33:35.404Z,76.35
2022-12-04T05:36:39.582Z,76.17
2022-12-04T05:39:44.040Z,76.80
2022-12-04T05:42:47.982Z,76.69
2022-12-04T05:45:50.695Z,76.37
2022-12-04T05:48:54.686Z,75.57
2022-12-04T05:51:58.879Z,76.54
2022-12-04T05:55:02.930Z,77.58
2022-12-04T05:58:07.074Z,76.20
2022-12-04T06:01:14.378Z,76.29
2022-12-04T06:07:38.872Z,76.04
2022-12-04T06:10:44.464Z,76.72
2022-12-04T06:13:48.807Z,76.54
2022-12-04T06:16:51.548Z,77.13
2022-12-04T06:19:57.267Z,76.38
2022-12-04T06:23:00.309Z,76.53
2022-12-04T06:26:07.448Z,77.75
2022-12-04T06:29:12.726Z,76.65
2022-12-04T06:32:21.459Z,76.47
2022-12-04T06:35:24.868Z,75.60
2022-12-04T06:41:50.965Z,76.51
2022-12-04T06:44:54.923Z,77.41
2022-12-04T06:47:58.860Z,76.87
2022-12-04T06:51:03.559Z,76.58
2022-12-04T06:54:07.540Z,76.72
2022-12-04T06:57:12.871Z,76.29
2022-12-04T07:00:16.747Z,77.00
2022-12-04T07:03:19.462Z,77.09
2022-12-04T07:06:24.935Z,77.19
2022-12-04T07:09:28.911Z,76.70
2022-12-04T07:12:33.025Z,76.49
2022-12-04T07:15:38.151Z,76.75
2022-12-04T07:18:41.006Z,76.80
2022-12-04T07:21:45.827Z,76.20
2022-12-04T07:24:48.533Z,76.92
2022-12-04T07:27:53.826Z,76.61
2022-12-04T07:30:56.548Z,76.46
2022-12-04T07:34:00.915Z,76.33
2022-12-04T07:37:03.771Z,76.80
2022-12-04T07:40:09.419Z,77.23
2022-12-04T07:43:13.503Z,77.50
2022-12-04T07:46:19.926Z,75.96
2022-12-04T07:49:22.704Z,76.46
2022-12-04T07:52:26.647Z,76.31
2022-12-04T07:55:29.306Z,76.99
2022-12-04T07:58:35.142Z,77.19
2022-12-04T08:01:37.908Z,77.23
2022-12-04T08:04:41.942Z,77.16
2022-12-04T08:07:46.188Z,76.45
2022-12-04T08:10:50.175Z,76.13
2022-12-04T08:13:58.026Z,77.52
2022-12-04T08:17:00.814Z,77.40
2022-12-04T08:20:05.115Z,77.30
2022-12-04T08:23:07.814Z,77.70
2022-12-04T08:26:12.815Z,76.76
2022-12-04T08:29:18.156Z,76.45
2022-12-04T08:32:20.841Z,77.25
2022-12-04T08:35:24.836Z,76.56
2022-12-04T08:38:27.514Z,76.54
2022-12-04T08:41:31.511Z,76.10
2022-12-04T08:44:35.539Z,76.58
2022-12-04T08:47:39.574Z,76.75
2022-12-04T08:50:46.249Z,77.03
2022-12-04T08:53:50.241Z,76.96
2022-12-04T08:56:54.190Z,77.32
2022-12-04T08:59:58.585Z,77.71
2022-12-04T09:03:02.726Z,76.58
2022-12-04T09:06:07.011Z,76.58
2022-12-04T09:09:10.968Z,76.95
2022-12-04T09:12:13.729Z,76.69
2022-12-04T09:15:19.261Z,76.49
2022-12-04T09:18:22.014Z,76.81
2022-12-04T09:21:27.334Z,75.84
2022-12-04T09:24:30.837Z,76.48
2022-12-04T09:27:38.760Z,77.18
2022-12-04T09:30:42.868Z,76.03
2022-12-04T09:33:47.486Z,76.66
2022-12-04T09:36:50.267Z,77.23
2022-12-04T09:39:54.476Z,76.87
2022-12-04T09:43:05.180Z,77.20
2022-12-04T09:46:14.995Z,76.79
2022-12-04T09:49:23.682Z,76.99
2022-12-04T09:52:42.349Z,76.30
2022-12-04T09:55:52.750Z,76.46
2022-12-04T09:59:02.567Z,76.58
2022-12-04T10:02:28.944Z,76.30
2022-12-04T10:05:43.906Z,76.82
2022-12-04T10:08:52.177Z,76.33
2022-12-04T10:12:04.052Z,76.11
2022-12-04T10:15:21.727Z,76.63
2022-12-04T10:18:42.613Z,75.71
2022-12-04T10:21:56.484Z,76.91
2022-12-04T10:25:04.846Z,76.10
2022-12-04T10:28:29.707Z,76.58
2022-12-04T10:31:33.752Z,77.17
2022-12-04T10:34:44.063Z,76.44
2022-12-04T10:37:52.472Z,76.20
2022-12-04T10:41:02.134Z,76.60
2022-12-04T10:44:06.583Z,76.45
2022-12-04T10:47:12.192Z,76.28
2022-12-04T10:50:21.747Z,77.03
2022-12-04T10:53:31.751Z,76.49
2022-12-04T10:56:35.780Z,76.50
2022-12-04T10:59:41.109Z,76.67
2022-12-04T11:02:45.427Z,76.11
2022-12-04T11:05:57.781Z,76.50
2022-12-04T11:09:03.245Z,76.46
2022-12-04T11:12:09.669Z,76.19
2022-12-04T11:15:16.955Z,76.29
2022-12-04T11:18:21.587Z,76.40
2022-12-04T11:21:30.058Z,76.56
2022-12-04T11:24:35.544Z,76.11
2022-12-04T11:31:04.467Z,76.61
2022-12-04T11:34:09.891Z,76.83
2022-12-04T11:40:49.386Z,76.47
2022-12-04T11:43:59.399Z,76.10
2022-12-04T11:47:24.574Z,75.82
2022-12-04T11:50:48.268Z,76.61
2022-12-04T11:54:01.296Z,76.43
2022-12-04T11:57:17.686Z,75.86
2022-12-04T12:03:58.740Z,75.60
2022-12-04T12:07:17.006Z,75.38
2022-12-04T12:10:30.447Z,76.01
2022-12-04T12:13:44.261Z,76.34
2022-12-04T12:16:59.282Z,76.60
2022-12-04T12:20:16.859Z,77.49
2022-12-04T12:23:31.363Z,76.35
2022-12-04T12:26:46.804Z,76.41
2022-12-04T12:29:59.171Z,76.76
2022-12-04T12:33:13.011Z,75.85
2022-12-04T12:36:17.756Z,77.42
2022-12-04T12:39:25.928Z,76.20
2022-12-04T12:42:36.877Z,76.03
2022-12-04T12:45:46.700Z,77.00
2022-12-04T12:48:58.577Z,77.23
2022-12-04T12:52:06.460Z,76.64
2022-12-04T12:55:19.282Z,77.14
2022-12-04T12:58:31.570Z,77.66
2022-12-04T13:01:46.711Z,77.07
2022-12-04T13:04:53.025Z,77.20
2022-12-04T13:08:05.898Z,76.59
2022-12-04T13:11:14.828Z,77.19
2022-12-04T13:14:20.179Z,77.45
2022-12-04T13:17:29.642Z,77.52
2022-12-04T13:20:41.438Z,77.74
2022-12-04T13:23:56.653Z,77.87
2022-12-04T13:30:41.045Z,77.66
2022-12-04T13:34:10.139Z,77.66
2022-12-04T13:37:33.097Z,77.26
2022-12-04T13:40:41.114Z,77.18
2022-12-04T13:43:49.588Z,77.06
2022-12-04T13:46:58.410Z,77.58
2022-12-04T13:50:29.679Z,76.69
2022-12-04T13:53:34.184Z,77.47
2022-12-04T13:56:38.124Z,78.15
2022-12-04T14:03:08.514Z,78.41
2022-12-04T14:06:25.424Z,77.19
2022-12-04T14:09:31.920Z,77.49
2022-12-04T14:12:38.818Z,78.01
2022-12-04T14:15:43.320Z,78.41
2022-12-04T14:18:50.708Z,77.94
2022-12-04T14:21:55.323Z,77.35
2022-12-04T14:25:21.247Z,77.84
2022-12-04T14:28:42.173Z,77.89
2022-12-04T14:31:45.151Z,78.20
2022-12-04T14:34:51.824Z,78.59
2022-12-04T14:37:58.362Z,77.63
2022-12-04T14:44:31.674Z,77.78
2022-12-04T14:47:45.237Z,78.70
2022-12-04T14:50:58.477Z,78.88
2022-12-04T14:54:11.628Z,78.18
2022-12-04T14:57:29.582Z,78.54
2022-12-04T15:00:33.685Z,77.43
2022-12-04T15:03:42.368Z,77.36
2022-12-04T15:06:55.401Z,78.32
2022-12-04T15:10:21.435Z,77.91
2022-12-04T15:13:29.294Z,77.46
2022-12-04T15:16:32.061Z,78.22
2022-12-04T15:19:36.071Z,77.66
2022-12-04T15:22:40.248Z,78.21
2022-12-04T15:25:47.999Z,78.23
2022-12-04T15:28:53.585Z,77.84
2022-12-04T15:35:29.410Z,78.63
2022-12-04T15:38:35.524Z,78.35
2022-12-04T15:41:38.636Z,78.29
2022-12-04T15:44:53.868Z,79.08
2022-12-04T15:47:58.607Z,78.83
2022-12-04T15:51:06.590Z,78.61
2022-12-04T15:54:22.329Z,78.24
2022-12-04T15:57:29.009Z,77.96
2022-12-04T16:00:37.440Z,78.58
2022-12-04T16:03:49.136Z,78.53
2022-12-04T16:06:54.948Z,78.79
2022-12-04T16:10:04.088Z,78.76
2022-12-04T16:13:08.402Z,78.59
2022-12-04T16:16:14.944Z,79.46
2022-12-04T16:19:28.435Z,78.99
2022-12-04T16:22:31.388Z,79.28
2022-12-04T16:25:36.731Z,79.14
2022-12-04T16:28:39.448Z,79.06
2022-12-04T16:31:43.509Z,79.59
2022-12-04T16:38:10.009Z,79.26
2022-12-04T16:41:16.523Z,78.96
2022-12-04T16:44:20.596Z,78.99
2022-12-04T16:47:23.720Z,79.88
2022-12-04T16:50:28.106Z,80.72
2022-12-04T16:53:30.836Z,79.72
2022-12-04T16:56:36.212Z,79.63
2022-12-04T16:59:40.348Z,80.08
2022-12-04T17:02:44.121Z,80.11
2022-12-04T17:05:48.194Z,80.23
2022-12-04T17:08:50.897Z,79.07
2022-12-04T17:11:56.207Z,80.29
2022-12-04T17:14:59.106Z,80.31
2022-12-04T17:18:07.392Z,79.66
2022-12-04T17:21:13.798Z,79.96
2022-12-04T17:24:17.777Z,80.25
2022-12-04T17:27:23.240Z,80.03
2022-12-04T17:30:31.372Z,80.64
2022-12-04T17:33:37.086Z,81.15
2022-12-04T17:36:41.025Z,80.04
2022-12-04T17:39:45.000Z,81.06
2022-12-04T17:42:50.573Z,81.09
2022-12-04T17:45:54.527Z,80.71
2022-12-04T17:48:59.565Z,80.53
2022-12-04T17:52:07.005Z,79.44
2022-12-04T17:55:10.202Z,80.27
2022-12-04T17:58:15.572Z,80.51
2022-12-04T18:01:20.650Z,80.90
2022-12-04T18:04:24.833Z,80.59
2022-12-04T18:07:27.722Z,80.24
2022-12-04T18:10:31.813Z,80.92
2022-12-04T18:13:36.190Z,80.36
2022-12-04T18:16:42.593Z,79.87
2022-12-04T18:19:45.376Z,81.39
2022-12-04T18:22:49.358Z,81.97
2022-12-04T18:25:57.166Z,81.58
2022-12-04T18:29:01.364Z,81.38
2022-12-04T18:32:05.583Z,82.34
2022-12-04T18:35:10.282Z,81.79
2022-12-04T18:38:14.220Z,81.28
2022-12-04T18:41:16.951Z,82.03
2022-12-04T18:44:22.735Z,81.46
2022-12-04T18:47:28.054Z,81.99
2022-12-04T18:50:30.754Z,80.13
2022-12-04T18:53:34.757Z,81.44
2022-12-04T18:56:37.753Z,81.52
2022-12-04T18:59:43.182Z,81.61
2022-12-04T19:02:46.917Z,81.79
2022-12-04T19:05:51.775Z,81.45
2022-12-04T19:08:54.502Z,82.11
2022-12-04T19:11:58.508Z,81.70
2022-12-04T19:15:02.659Z,81.36
2022-12-04T19:21:29.283Z,81.68
2022-12-04T19:24:32.213Z,81.70
2022-12-04T19:27:36.260Z,82.25
2022-12-04T19:30:40.346Z,81.12
2022-12-04T19:33:44.319Z,81.78
2022-12-04T19:36:47.282Z,81.56
2022-12-04T19:39:51.282Z,82.23
2022-12-04T19:43:01.108Z,82.55
2022-12-04T19:46:09.226Z,82.41
2022-12-04T19:52:34.714Z,81.08
2022-12-04T19:55:39.037Z,81.48
2022-12-04T19:58:43.615Z,81.78
2022-12-04T20:01:48.048Z,82.20
2022-12-04T20:04:52.128Z,82.30
2022-12-04T20:07:56.094Z,81.99
2022-12-04T20:11:04.375Z,82.36
2022-12-04T20:14:08.541Z,81.96
2022-12-04T20:17:13.917Z,82.39
2022-12-04T20:20:18.142Z,81.71
2022-12-04T20:23:20.833Z,82.39
2022-12-04T20:26:26.568Z,82.74
2022-12-04T20:29:29.264Z,82.24
2022-12-04T20:32:36.226Z,82.16
2022-12-04T20:35:40.986Z,81.99
2022-12-04T20:38:45.082Z,81.83
2022-12-04T20:41:48.136Z,82.50
2022-12-04T20:44:52.093Z,81.80
2022-12-04T20:47:58.462Z,82.18
2022-12-04T20:51:01.918Z,82.09
2022-12-04T20:54:06.711Z,82.20
2022-12-04T20:57:09.713Z,82.48
2022-12-04T21:00:15.724Z,83.06
2022-12-04T21:03:21.098Z,81.74
2022-12-04T21:06:29.629Z,82.45
2022-12-04T21:09:36.633Z,81.88
2022-12-04T21:12:56.823Z,81.65
2022-12-04T21:16:06.566Z,81.76
2022-12-04T21:19:12.111Z,81.85
2022-12-04T21:22:16.375Z,81.96
2022-12-04T21:25:19.210Z,82.34
2022-12-04T21:28:23.186Z,82.22
2022-12-04T21:34:53.142Z,81.95
2022-12-04T21:37:56.676Z,81.67
2022-12-04T21:41:00.585Z,82.04
2022-12-04T21:44:05.370Z,81.15
2022-12-04T21:47:09.472Z,81.76
2022-12-04T21:50:13.622Z,81.82
2022-12-04T21:53:17.694Z,82.27
2022-12-04T21:56:20.432Z,81.48
2022-12-04T21:59:24.513Z,81.54
2022-12-04T22:02:28.615Z,82.65
2022-12-04T22:05:35.398Z,82.60
2022-12-04T22:08:41.435Z,82.06
2022-12-04T22:11:44.769Z,81.33
2022-12-04T22:18:09.808Z,81.53
2022-12-04T22:24:37.127Z,82.25
2022-12-04T22:27:41.129Z,82.70
2022-12-04T22:30:44.112Z,81.35
2022-12-04T22:33:49.223Z,81.69
2022-12-04T22:36:54.551Z,82.23
2022-12-04T22:39:57.455Z,82.03
2022-12-04T22:43:01.618Z,82.14
2022-12-04T22:46:04.605Z,81.83
2022-12-04T22:49:08.656Z,81.62
2022-12-04T22:52:13.946Z,81.95
2022-12-04T22:55:16.754Z,81.87
2022-12-04T22:58:20.743Z,82.30
2022-12-04T23:01:25.162Z,81.11
2022-12-04T23:04:29.408Z,82.43
2022-12-04T23:07:33.536Z,82.26
2022-12-04T23:10:39.554Z,83.30
2022-12-04T23:13:44.275Z,82.95
2022-12-04T23:16:47.275Z,82.69
2022-12-04T23:19:51.413Z,83.35
2022-12-04T23:22:57.367Z,82.66
2022-12-04T23:26:03.051Z,80.97
2022-12-04T23:29:29.517Z,82.29
2022-12-04T23:32:31.613Z,82.74
2022-12-04T23:35:34.299Z,83.06
2022-12-04T23:38:42.722Z,83.22
2022-12-04T23:41:46.743Z,82.76
2022-12-04T23:44:49.447Z,83.38
2022-12-04T23:47:53.417Z,82.35
2022-12-04T23:50:56.252Z,82.63
2022-12-04T23:54:01.581Z,81.96
2022-12-04T23:57:05.692Z,83.05
